^^
Station Historical Data
Daily Summary for March 24, 2017 Units:  Both    English   Metric
« Previous Day
Next Day »
Daily Weekly Monthly Yearly Custom
  High: Low: Average:
Temperature: 82.0 °F /  27.8 °C 61.2 °F /  16.2 °C 69.2 °F /  20.7 °C
Dew Point: 63.7 °F /  17.6 °C 43.0 °F /  6.1 °C 55 °F /  12.8 °C
Humidity: 83% 36% 62%
Wind Speed: 10.1mph /  16.3km/h - 1.9mph /  3.1km/h
Wind Gust: 14.0mph /  22.5km/h - -
Wind- - SSE
Pressure: 29.89 in /  1012.1 hPa 29.78 in /  1008.4 hPa -
Precipitation: 0.06 in /  1.52 mm    
Historical Graphs
 
 
Tabular Data for March 24, 2017
Time Temperature Dew Point Pressure Wind Wind Speed Wind Gust Humidity Rainfall Rate (Hourly) solar Conditions
00:06 65.5 °F /  18.6 °C 55.8 °F /  13.2 °C 29.88in /  1011.7hPa Calm     71% 0.00in /  0mm 0.0 W/m2
00:12 65.7 °F /  18.7 °C 55.9 °F /  13.3 °C 29.88in /  1011.7hPa Calm     71% 0.00in /  0mm 0.0 W/m2
00:18 65.7 °F /  18.7 °C 55.6 °F /  13.1 °C 29.88in /  1011.7hPa SSE 2.0mph /  3.2km/h 2.0mph /  3.2km/h 70% 0.00in /  0mm 0.0 W/m2
00:24 65.7 °F /  18.7 °C 55.2 °F /  12.9 °C 29.88in /  1011.7hPa Calm   1.0mph /  1.6km/h 69% 0.00in /  0mm 0.0 W/m2
00:30 65.8 °F /  18.8 °C 55.4 °F /  13 °C 29.88in /  1011.7hPa Calm   1.0mph /  1.6km/h 69% 0.00in /  0mm 0.0 W/m2
00:36 65.8 °F /  18.8 °C 55.4 °F /  13 °C 29.88in /  1011.7hPa Calm   1.0mph /  1.6km/h 69% 0.00in /  0mm 0.0 W/m2
00:42 65.8 °F /  18.8 °C 55.4 °F /  13 °C 29.88in /  1011.7hPa Calm     69% 0.00in /  0mm 0.0 W/m2
00:49 65.8 °F /  18.8 °C 55.8 °F /  13.2 °C 29.88in /  1011.7hPa Calm     70% 0.00in /  0mm 0.0 W/m2
00:55 65.8 °F /  18.8 °C 55.8 °F /  13.2 °C 29.88in /  1011.7hPa Calm     70% 0.00in /  0mm 0.0 W/m2
01:01 65.7 °F /  18.7 °C 55.6 °F /  13.1 °C 29.88in /  1011.7hPa Calm     70% 0.00in /  0mm 0.0 W/m2
01:07 65.7 °F /  18.7 °C 55.2 °F /  12.9 °C 29.87in /  1011.4hPa SE 2.0mph /  3.2km/h 2.0mph /  3.2km/h 69% 0.00in /  0mm 0.0 W/m2
01:13 65.7 °F /  18.7 °C 55.2 °F /  12.9 °C 29.87in /  1011.4hPa SE 4.0mph /  6.4km/h 4.0mph /  6.4km/h 69% 0.00in /  0mm 0.0 W/m2
01:19 65.5 °F /  18.6 °C 54.7 °F /  12.6 °C 29.86in /  1011.1hPa Calm   3.0mph /  4.8km/h 68% 0.00in /  0mm 0.0 W/m2
01:25 65.7 °F /  18.7 °C 55.2 °F /  12.9 °C 29.87in /  1011.4hPa West 0.9mph /  1.4km/h 1.0mph /  1.6km/h 69% 0.00in /  0mm 0.0 W/m2
01:31 65.7 °F /  18.7 °C 55.6 °F /  13.1 °C 29.87in /  1011.4hPa Calm     70% 0.00in /  0mm 0.0 W/m2
01:37 65.5 °F /  18.6 °C 55.8 °F /  13.2 °C 29.87in /  1011.4hPa Calm   1.0mph /  1.6km/h 71% 0.00in /  0mm 0.0 W/m2
01:44 65.5 °F /  18.6 °C 55.8 °F /  13.2 °C 29.86in /  1011.1hPa Calm   1.0mph /  1.6km/h 71% 0.00in /  0mm 0.0 W/m2
01:50 65.5 °F /  18.6 °C 55.8 °F /  13.2 °C 29.86in /  1011.1hPa Calm   3.0mph /  4.8km/h 71% 0.00in /  0mm 0.0 W/m2
01:56 65.5 °F /  18.6 °C 55.8 °F /  13.2 °C 29.86in /  1011.1hPa Calm   1.0mph /  1.6km/h 71% 0.00in /  0mm 0.0 W/m2
02:02 65.3 °F /  18.5 °C 55.6 °F /  13.1 °C 29.86in /  1011.1hPa Calm   1.0mph /  1.6km/h 71% 0.00in /  0mm 0.0 W/m2
02:08 65.3 °F /  18.5 °C 56.1 °F /  13.4 °C 29.86in /  1011.1hPa Calm     72% 0.00in /  0mm 0.0 W/m2
02:14 65.1 °F /  18.4 °C 55.4 °F /  13 °C 29.85in /  1010.7hPa Calm     71% 0.00in /  0mm 0.0 W/m2
02:20 65.1 °F /  18.4 °C 55.4 °F /  13 °C 29.85in /  1010.7hPa Calm   1.0mph /  1.6km/h 71% 0.00in /  0mm 0.0 W/m2
02:26 65.1 °F /  18.4 °C 55.9 °F /  13.3 °C 29.85in /  1010.7hPa Calm     72% 0.00in /  0mm 0.0 W/m2
02:33 64.9 °F /  18.3 °C 56.1 °F /  13.4 °C 29.85in /  1010.7hPa Calm     73% 0.00in /  0mm 0.0 W/m2
02:39 64.8 °F /  18.2 °C 55.9 °F /  13.3 °C 29.85in /  1010.7hPa Calm     73% 0.00in /  0mm 0.0 W/m2
02:45 64.6 °F /  18.1 °C 55.8 °F /  13.2 °C 29.85in /  1010.7hPa Calm     73% 0.00in /  0mm 0.0 W/m2
02:51 64.4 °F /  18 °C 55.6 °F /  13.1 °C 29.85in /  1010.7hPa Calm     73% 0.00in /  0mm 0.0 W/m2
02:57 64.2 °F /  17.9 °C 55.4 °F /  13 °C 29.85in /  1010.7hPa Calm     73% 0.00in /  0mm 0.0 W/m2
03:03 63.9 °F /  17.7 °C 54.7 °F /  12.6 °C 29.85in /  1010.7hPa Calm   1.0mph /  1.6km/h 72% 0.00in /  0mm 0.0 W/m2
03:09 63.9 °F /  17.7 °C 54.7 °F /  12.6 °C 29.84in /  1010.4hPa Calm     72% 0.00in /  0mm 0.0 W/m2
03:16 63.7 °F /  17.6 °C 54.9 °F /  12.7 °C 29.84in /  1010.4hPa Calm     73% 0.00in /  0mm 0.0 W/m2
03:22 63.3 °F /  17.4 °C 54.5 °F /  12.5 °C 29.84in /  1010.4hPa Calm     73% 0.00in /  0mm 0.0 W/m2
03:28 63.1 °F /  17.3 °C 54.7 °F /  12.6 °C 29.84in /  1010.4hPa Calm     74% 0.00in /  0mm 0.0 W/m2
03:34 63.0 °F /  17.2 °C 55.2 °F /  12.9 °C 29.84in /  1010.4hPa Calm     76% 0.00in /  0mm 0.0 W/m2
03:40 62.8 °F /  17.1 °C 55.0 °F /  12.8 °C 29.84in /  1010.4hPa Calm     76% 0.00in /  0mm 0.0 W/m2
03:46 62.4 °F /  16.9 °C 55.0 °F /  12.8 °C 29.84in /  1010.4hPa Calm     77% 0.00in /  0mm 0.0 W/m2
03:53 62.1 °F /  16.7 °C 54.7 °F /  12.6 °C 29.84in /  1010.4hPa Calm     77% 0.00in /  0mm 0.0 W/m2
03:59 61.9 °F /  16.6 °C 54.9 °F /  12.7 °C 29.84in /  1010.4hPa Calm     78% 0.00in /  0mm 0.0 W/m2
04:05 61.5 °F /  16.4 °C 54.7 °F /  12.6 °C 29.84in /  1010.4hPa Calm     78% 0.00in /  0mm 0.0 W/m2
04:11 61.3 °F /  16.3 °C 54.5 °F /  12.5 °C 29.84in /  1010.4hPa Calm     78% 0.00in /  0mm 0.0 W/m2
04:23 61.2 °F /  16.2 °C 54.7 °F /  12.6 °C 29.84in /  1010.4hPa Calm     79% 0.00in /  0mm 0.0 W/m2
04:29 61.2 °F /  16.2 °C 54.7 °F /  12.6 °C 29.84in /  1010.4hPa Calm     79% 0.00in /  0mm 0.0 W/m2
04:36 61.2 °F /  16.2 °C 54.0 °F /  12.2 °C 29.84in /  1010.4hPa Calm     77% 0.00in /  0mm 0.0 W/m2
04:42 61.3 °F /  16.3 °C 53.8 °F /  12.1 °C 29.84in /  1010.4hPa Calm     76% 0.00in /  0mm 0.0 W/m2
04:48 61.5 °F /  16.4 °C 54.0 °F /  12.2 °C 29.84in /  1010.4hPa Calm     76% 0.00in /  0mm 0.0 W/m2
04:54 61.9 °F /  16.6 °C 54.3 °F /  12.4 °C 29.84in /  1010.4hPa SSW 0.9mph /  1.4km/h 2.0mph /  3.2km/h 76% 0.00in /  0mm 0.0 W/m2
05:00 62.1 °F /  16.7 °C 52.9 °F /  11.6 °C 29.83in /  1010hPa SE 0.9mph /  1.4km/h 5.0mph /  8km/h 72% 0.00in /  0mm 0.0 W/m2
05:06 62.8 °F /  17.1 °C 52.9 °F /  11.6 °C 29.84in /  1010.4hPa Calm   3.0mph /  4.8km/h 70% 0.00in /  0mm 0.0 W/m2
05:13 63.3 °F /  17.4 °C 52.5 °F /  11.4 °C 29.84in /  1010.4hPa SW 2.0mph /  3.2km/h 7.0mph /  11.3km/h 68% 0.00in /  0mm 0.0 W/m2
05:19 64.0 °F /  17.8 °C 52.9 °F /  11.6 °C 29.83in /  1010hPa East 0.9mph /  1.4km/h 4.0mph /  6.4km/h 67% 0.00in /  0mm 0.0 W/m2
05:25 64.4 °F /  18 °C 52.3 °F /  11.3 °C 29.83in /  1010hPa South 0.9mph /  1.4km/h 4.0mph /  6.4km/h 65% 0.00in /  0mm 0.0 W/m2
05:31 64.8 °F /  18.2 °C 52.3 °F /  11.3 °C 29.83in /  1010hPa Calm   3.0mph /  4.8km/h 64% 0.00in /  0mm 0.0 W/m2
05:37 64.9 °F /  18.3 °C 52.5 °F /  11.4 °C 29.83in /  1010hPa South 2.9mph /  4.7km/h 6.0mph /  9.7km/h 64% 0.00in /  0mm 0.0 W/m2
05:43 64.9 °F /  18.3 °C 52.0 °F /  11.1 °C 29.83in /  1010hPa South 2.0mph /  3.2km/h 4.0mph /  6.4km/h 63% 0.00in /  0mm 0.0 W/m2
05:49 65.1 °F /  18.4 °C 51.8 °F /  11 °C 29.84in /  1010.4hPa SSE 0.9mph /  1.4km/h 8.0mph /  12.9km/h 62% 0.00in /  0mm 0.0 W/m2
05:55 65.1 °F /  18.4 °C 51.8 °F /  11 °C 29.84in /  1010.4hPa WSW 0.9mph /  1.4km/h 9.0mph /  14.5km/h 62% 0.00in /  0mm 0.0 W/m2
06:01 65.1 °F /  18.4 °C 51.8 °F /  11 °C 29.84in /  1010.4hPa SSE 4.9mph /  7.9km/h 12.0mph /  19.3km/h 62% 0.00in /  0mm 0.0 W/m2
06:07 65.5 °F /  18.6 °C 51.6 °F /  10.9 °C 29.84in /  1010.4hPa East 2.9mph /  4.7km/h 10.0mph /  16.1km/h 61% 0.00in /  0mm 0.0 W/m2
06:14 65.5 °F /  18.6 °C 51.6 °F /  10.9 °C 29.84in /  1010.4hPa SE 6.0mph /  9.7km/h 6.0mph /  9.7km/h 61% 0.00in /  0mm 0.0 W/m2
06:20 65.5 °F /  18.6 °C 51.6 °F /  10.9 °C 29.84in /  1010.4hPa SE 2.0mph /  3.2km/h 8.0mph /  12.9km/h 61% 0.00in /  0mm 0.0 W/m2
06:26 65.3 °F /  18.5 °C 51.4 °F /  10.8 °C 29.84in /  1010.4hPa SSE 2.9mph /  4.7km/h 9.0mph /  14.5km/h 61% 0.00in /  0mm 0.0 W/m2
06:32 65.1 °F /  18.4 °C 51.3 °F /  10.7 °C 29.84in /  1010.4hPa SSE 6.0mph /  9.7km/h 8.0mph /  12.9km/h 61% 0.00in /  0mm 0.0 W/m2
06:38 65.1 °F /  18.4 °C 51.3 °F /  10.7 °C 29.85in /  1010.7hPa South 4.9mph /  7.9km/h 12.0mph /  19.3km/h 61% 0.00in /  0mm 0.0 W/m2
06:44 65.1 °F /  18.4 °C 51.3 °F /  10.7 °C 29.85in /  1010.7hPa ESE 6.9mph /  11.1km/h 7.0mph /  11.3km/h 61% 0.00in /  0mm 0.0 W/m2
06:50 65.1 °F /  18.4 °C 51.3 °F /  10.7 °C 29.85in /  1010.7hPa SE 2.0mph /  3.2km/h 9.0mph /  14.5km/h 61% 0.00in /  0mm 0.0 W/m2
06:57 64.9 °F /  18.3 °C 51.6 °F /  10.9 °C 29.85in /  1010.7hPa SE 2.9mph /  4.7km/h 9.0mph /  14.5km/h 62% 0.00in /  0mm 0.0 W/m2
07:03 64.9 °F /  18.3 °C 51.6 °F /  10.9 °C 29.85in /  1010.7hPa SE 2.9mph /  4.7km/h 8.0mph /  12.9km/h 62% 0.00in /  0mm 7.0 W/m2
07:09 64.9 °F /  18.3 °C 51.6 °F /  10.9 °C 29.85in /  1010.7hPa ESE 4.0mph /  6.4km/h 9.0mph /  14.5km/h 62% 0.00in /  0mm 11.0 W/m2
07:15 64.8 °F /  18.2 °C 51.4 °F /  10.8 °C 29.85in /  1010.7hPa SSE 6.0mph /  9.7km/h 11.0mph /  17.7km/h 62% 0.00in /  0mm 14.0 W/m2
07:21 64.8 °F /  18.2 °C 51.4 °F /  10.8 °C 29.85in /  1010.7hPa SSE 4.9mph /  7.9km/h 11.0mph /  17.7km/h 62% 0.00in /  0mm 12.0 W/m2
07:27 64.8 °F /  18.2 °C 51.4 °F /  10.8 °C 29.85in /  1010.7hPa ESE 0.9mph /  1.4km/h 6.0mph /  9.7km/h 62% 0.00in /  0mm 16.0 W/m2
07:33 64.6 °F /  18.1 °C 51.6 °F /  10.9 °C 29.85in /  1010.7hPa Calm   6.0mph /  9.7km/h 63% 0.00in /  0mm 18.0 W/m2
07:39 64.6 °F /  18.1 °C 51.6 °F /  10.9 °C 29.85in /  1010.7hPa SSW 8.9mph /  14.3km/h 9.0mph /  14.5km/h 63% 0.00in /  0mm 19.0 W/m2
07:45 64.6 °F /  18.1 °C 51.6 °F /  10.9 °C 29.85in /  1010.7hPa SE 4.9mph /  7.9km/h 9.0mph /  14.5km/h 63% 0.00in /  0mm 21.0 W/m2
07:52 64.8 °F /  18.2 °C 51.8 °F /  11 °C 29.85in /  1010.7hPa SE 6.0mph /  9.7km/h 7.0mph /  11.3km/h 63% 0.00in /  0mm 23.0 W/m2
07:58 64.9 °F /  18.3 °C 52.0 °F /  11.1 °C 29.86in /  1011.1hPa SSE 4.0mph /  6.4km/h 11.0mph /  17.7km/h 63% 0.00in /  0mm 25.0 W/m2
08:04 65.1 °F /  18.4 °C 52.2 °F /  11.2 °C 29.86in /  1011.1hPa ESE 2.9mph /  4.7km/h 12.0mph /  19.3km/h 63% 0.00in /  0mm 26.0 W/m2
08:10 65.5 °F /  18.6 °C 53.1 °F /  11.7 °C 29.86in /  1011.1hPa SE 8.9mph /  14.3km/h 11.0mph /  17.7km/h 64% 0.00in /  0mm 26.0 W/m2
08:16 65.7 °F /  18.7 °C 52.7 °F /  11.5 °C 29.86in /  1011.1hPa SE 6.0mph /  9.7km/h 9.0mph /  14.5km/h 63% 0.00in /  0mm 26.0 W/m2
08:22 66.0 °F /  18.9 °C 53.1 °F /  11.7 °C 29.86in /  1011.1hPa SE 2.9mph /  4.7km/h 9.0mph /  14.5km/h 63% 0.00in /  0mm 26.0 W/m2
08:28 66.4 °F /  19.1 °C 53.4 °F /  11.9 °C 29.86in /  1011.1hPa SSW 2.9mph /  4.7km/h 10.0mph /  16.1km/h 63% 0.00in /  0mm 26.0 W/m2
08:40 66.9 °F /  19.4 °C 53.4 °F /  11.9 °C 29.87in /  1011.4hPa ESE 8.9mph /  14.3km/h 12.0mph /  19.3km/h 62% 0.00in /  0mm 28.0 W/m2
08:47 67.5 °F /  19.7 °C 54.0 °F /  12.2 °C 29.87in /  1011.4hPa South 2.0mph /  3.2km/h 9.0mph /  14.5km/h 62% 0.00in /  0mm 28.0 W/m2
08:53 67.8 °F /  19.9 °C 54.0 °F /  12.2 °C 29.87in /  1011.4hPa SSE 8.1mph /  13km/h 8.1mph /  13km/h 61% 0.00in /  0mm 30.0 W/m2
08:59 68.2 °F /  20.1 °C 54.1 °F /  12.3 °C 29.88in /  1011.7hPa SSE 4.9mph /  7.9km/h 10.0mph /  16.1km/h 61% 0.00in /  0mm 32.0 W/m2
09:05 68.5 °F /  20.3 °C 54.1 °F /  12.3 °C 29.88in /  1011.7hPa ESE 8.9mph /  14.3km/h 10.0mph /  16.1km/h 60% 0.00in /  0mm 33.0 W/m2
09:11 69.1 °F /  20.6 °C 54.1 °F /  12.3 °C 29.88in /  1011.7hPa ESE 8.1mph /  13km/h 12.0mph /  19.3km/h 59% 0.00in /  0mm 32.0 W/m2
09:17 69.3 °F /  20.7 °C 54.3 °F /  12.4 °C 29.88in /  1011.7hPa SE 10.1mph /  16.3km/h 13.0mph /  20.9km/h 59% 0.00in /  0mm 33.0 W/m2
09:23 69.4 °F /  20.8 °C 54.5 °F /  12.5 °C 29.88in /  1011.7hPa SSE 6.9mph /  11.1km/h 10.0mph /  16.1km/h 59% 0.00in /  0mm 33.0 W/m2
09:29 70.0 °F /  21.1 °C 54.0 °F /  12.2 °C 29.88in /  1011.7hPa SSE 4.9mph /  7.9km/h 10.0mph /  16.1km/h 57% 0.00in /  0mm 35.0 W/m2
09:36 70.3 °F /  21.3 °C 54.3 °F /  12.4 °C 29.88in /  1011.7hPa SE 4.9mph /  7.9km/h 8.0mph /  12.9km/h 57% 0.00in /  0mm 37.0 W/m2
09:42 70.9 °F /  21.6 °C 54.3 °F /  12.4 °C 29.88in /  1011.7hPa SW 2.0mph /  3.2km/h 4.0mph /  6.4km/h 56% 0.00in /  0mm 37.0 W/m2
09:48 71.2 °F /  21.8 °C 54.7 °F /  12.6 °C 29.88in /  1011.7hPa South 2.9mph /  4.7km/h 9.0mph /  14.5km/h 56% 0.00in /  0mm 44.0 W/m2
09:54 71.8 °F /  22.1 °C 54.7 °F /  12.6 °C 29.89in /  1012.1hPa South 4.0mph /  6.4km/h 11.0mph /  17.7km/h 55% 0.00in /  0mm 636.0 W/m2
10:06 73.0 °F /  22.8 °C 54.9 °F /  12.7 °C 29.89in /  1012.1hPa SSE 0.9mph /  1.4km/h 6.0mph /  9.7km/h 53% 0.00in /  0mm 675.0 W/m2
10:12 73.6 °F /  23.1 °C 54.9 °F /  12.7 °C 29.89in /  1012.1hPa South 4.0mph /  6.4km/h 8.0mph /  12.9km/h 52% 0.00in /  0mm 694.0 W/m2
10:18 73.9 °F /  23.3 °C 55.2 °F /  12.9 °C 29.88in /  1011.7hPa ESE 0.9mph /  1.4km/h 11.0mph /  17.7km/h 52% 0.00in /  0mm 710.0 W/m2
10:24 74.7 °F /  23.7 °C 55.4 °F /  13 °C 29.89in /  1012.1hPa SSE 8.9mph /  14.3km/h 11.0mph /  17.7km/h 51% 0.00in /  0mm 729.0 W/m2
10:31 75.0 °F /  23.9 °C 55.0 °F /  12.8 °C 29.89in /  1012.1hPa SSE 2.0mph /  3.2km/h 12.0mph /  19.3km/h 50% 0.00in /  0mm 745.0 W/m2
10:37 75.4 °F /  24.1 °C 54.9 °F /  12.7 °C 29.88in /  1011.7hPa Calm   14.0mph /  22.5km/h 49% 0.00in /  0mm 763.0 W/m2
10:43 75.6 °F /  24.2 °C 55.6 °F /  13.1 °C 29.88in /  1011.7hPa South 2.0mph /  3.2km/h 7.0mph /  11.3km/h 50% 0.00in /  0mm 777.0 W/m2
10:49 75.6 °F /  24.2 °C 55.6 °F /  13.1 °C 29.88in /  1011.7hPa SSW 4.9mph /  7.9km/h 13.0mph /  20.9km/h 50% 0.00in /  0mm 791.0 W/m2
10:55 75.7 °F /  24.3 °C 55.2 °F /  12.9 °C 29.88in /  1011.7hPa SE 2.9mph /  4.7km/h 7.0mph /  11.3km/h 49% 0.00in /  0mm 805.0 W/m2
11:01 76.5 °F /  24.7 °C 54.7 °F /  12.6 °C 29.88in /  1011.7hPa SW 2.9mph /  4.7km/h 8.0mph /  12.9km/h 47% 0.00in /  0mm 821.0 W/m2
11:07 76.6 °F /  24.8 °C 54.9 °F /  12.7 °C 29.88in /  1011.7hPa South 2.9mph /  4.7km/h 9.0mph /  14.5km/h 47% 0.00in /  0mm 833.0 W/m2
11:13 76.8 °F /  24.9 °C 55.0 °F /  12.8 °C 29.88in /  1011.7hPa SSW 2.9mph /  4.7km/h 9.0mph /  14.5km/h 47% 0.00in /  0mm 844.0 W/m2
11:19 77.2 °F /  25.1 °C 55.4 °F /  13 °C 29.88in /  1011.7hPa SW 6.9mph /  11.1km/h 7.0mph /  11.3km/h 47% 0.00in /  0mm 856.0 W/m2
11:26 77.7 °F /  25.4 °C 53.4 °F /  11.9 °C 29.88in /  1011.7hPa ESE 6.0mph /  9.7km/h 11.0mph /  17.7km/h 43% 0.00in /  0mm 877.0 W/m2
11:32 78.6 °F /  25.9 °C 53.6 °F /  12 °C 29.88in /  1011.7hPa SW 2.9mph /  4.7km/h 7.0mph /  11.3km/h 42% 0.00in /  0mm 918.0 W/m2
11:38 78.8 °F /  26 °C 53.8 °F /  12.1 °C 29.87in /  1011.4hPa South 8.1mph /  13km/h 8.1mph /  13km/h 42% 0.00in /  0mm 928.0 W/m2
11:44 78.6 °F /  25.9 °C 53.6 °F /  12 °C 29.87in /  1011.4hPa SE 4.0mph /  6.4km/h 8.0mph /  12.9km/h 42% 0.00in /  0mm 135.0 W/m2
11:50 77.9 °F /  25.5 °C 52.9 °F /  11.6 °C 29.87in /  1011.4hPa East 2.0mph /  3.2km/h 4.0mph /  6.4km/h 42% 0.00in /  0mm 135.0 W/m2
11:56 77.5 °F /  25.3 °C 52.7 °F /  11.5 °C 29.87in /  1011.4hPa SW 2.9mph /  4.7km/h 3.0mph /  4.8km/h 42% 0.00in /  0mm 445.0 W/m2
12:03 77.5 °F /  25.3 °C 52.7 °F /  11.5 °C 29.86in /  1011.1hPa East 2.9mph /  4.7km/h 9.0mph /  14.5km/h 42% 0.00in /  0mm 1097.0 W/m2
12:09 78.1 °F /  25.6 °C 53.8 °F /  12.1 °C 29.86in /  1011.1hPa Calm   11.0mph /  17.7km/h 43% 0.00in /  0mm 390.0 W/m2
12:15 77.9 °F /  25.5 °C 54.9 °F /  12.7 °C 29.86in /  1011.1hPa SSE 0.9mph /  1.4km/h 4.0mph /  6.4km/h 45% 0.00in /  0mm 218.0 W/m2
12:21 77.9 °F /  25.5 °C 53.6 °F /  12 °C 29.86in /  1011.1hPa Calm   8.0mph /  12.9km/h 43% 0.00in /  0mm 193.0 W/m2
12:27 77.5 °F /  25.3 °C 53.2 °F /  11.8 °C 29.86in /  1011.1hPa SE 2.0mph /  3.2km/h 3.0mph /  4.8km/h 43% 0.00in /  0mm 267.0 W/m2
12:33 78.1 °F /  25.6 °C 53.1 °F /  11.7 °C 29.85in /  1010.7hPa ESE 4.0mph /  6.4km/h 7.0mph /  11.3km/h 42% 0.00in /  0mm 1201.0 W/m2
12:39 78.6 °F /  25.9 °C 52.9 °F /  11.6 °C 29.85in /  1010.7hPa SE 0.9mph /  1.4km/h 4.0mph /  6.4km/h 41% 0.00in /  0mm 141.0 W/m2
12:45 78.4 °F /  25.8 °C 52.7 °F /  11.5 °C 29.85in /  1010.7hPa SE 2.0mph /  3.2km/h 3.0mph /  4.8km/h 41% 0.00in /  0mm 183.0 W/m2
12:51 78.3 °F /  25.7 °C 53.2 °F /  11.8 °C 29.85in /  1010.7hPa Calm   3.0mph /  4.8km/h 42% 0.00in /  0mm 220.0 W/m2
12:55 78.3 °F /  25.7 °C 53.2 °F /  11.8 °C 29.85in /  1010.7hPa East 0.9mph /  1.4km/h 4.0mph /  6.4km/h 42% 0.00in /  0mm 279.0 W/m2
13:01 78.4 °F /  25.8 °C 52.7 °F /  11.5 °C 29.84in /  1010.4hPa Calm   2.0mph /  3.2km/h 41% 0.00in /  0mm 316.0 W/m2
13:08 78.4 °F /  25.8 °C 52.7 °F /  11.5 °C 29.84in /  1010.4hPa SE 4.9mph /  7.9km/h 5.0mph /  8km/h 41% 0.00in /  0mm 350.0 W/m2
13:14 79.2 °F /  26.2 °C 52.7 °F /  11.5 °C 29.84in /  1010.4hPa Calm   3.0mph /  4.8km/h 40% 0.00in /  0mm 1060.0 W/m2
13:20 79.9 °F /  26.6 °C 51.3 °F /  10.7 °C 29.84in /  1010.4hPa WSW 2.0mph /  3.2km/h 3.0mph /  4.8km/h 37% 0.00in /  0mm 462.0 W/m2
13:26 79.5 °F /  26.4 °C 51.6 °F /  10.9 °C 29.84in /  1010.4hPa SE 2.0mph /  3.2km/h 3.0mph /  4.8km/h 38% 0.00in /  0mm 394.0 W/m2
13:32 79.5 °F /  26.4 °C 50.9 °F /  10.5 °C 29.83in /  1010hPa SW 2.0mph /  3.2km/h 3.0mph /  4.8km/h 37% 0.00in /  0mm 341.0 W/m2
13:38 79.5 °F /  26.4 °C 53.1 °F /  11.7 °C 29.83in /  1010hPa Calm   5.0mph /  8km/h 40% 0.00in /  0mm 309.0 W/m2
13:44 79.3 °F /  26.3 °C 52.9 °F /  11.6 °C 29.83in /  1010hPa Calm     40% 0.00in /  0mm 251.0 W/m2
13:50 79.3 °F /  26.3 °C 52.2 °F /  11.2 °C 29.82in /  1009.7hPa Calm   2.0mph /  3.2km/h 39% 0.00in /  0mm 313.0 W/m2
13:56 79.9 °F /  26.6 °C 52.7 °F /  11.5 °C 29.82in /  1009.7hPa ESE 2.0mph /  3.2km/h 4.0mph /  6.4km/h 39% 0.00in /  0mm 1078.0 W/m2
14:02 80.2 °F /  26.8 °C 51.6 °F /  10.9 °C 29.82in /  1009.7hPa SW 0.9mph /  1.4km/h 4.0mph /  6.4km/h 37% 0.00in /  0mm 339.0 W/m2
14:09 80.4 °F /  26.9 °C 51.8 °F /  11 °C 29.81in /  1009.4hPa ESE 2.0mph /  3.2km/h 4.0mph /  6.4km/h 37% 0.00in /  0mm 304.0 W/m2
14:15 80.4 °F /  26.9 °C 52.5 °F /  11.4 °C 29.81in /  1009.4hPa SW 6.0mph /  9.7km/h 6.0mph /  9.7km/h 38% 0.00in /  0mm 350.0 W/m2
14:21 81.0 °F /  27.2 °C 51.4 °F /  10.8 °C 29.81in /  1009.4hPa WNW 0.9mph /  1.4km/h 1.0mph /  1.6km/h 36% 0.00in /  0mm 819.0 W/m2
14:27 81.3 °F /  27.4 °C 52.5 °F /  11.4 °C 29.80in /  1009hPa Calm   5.0mph /  8km/h 37% 0.00in /  0mm 323.0 W/m2
14:33 81.0 °F /  27.2 °C 52.2 °F /  11.2 °C 29.81in /  1009.4hPa SW 0.9mph /  1.4km/h 3.0mph /  4.8km/h 37% 0.00in /  0mm 390.0 W/m2
14:39 81.0 °F /  27.2 °C 53.6 °F /  12 °C 29.80in /  1009hPa SSW 2.0mph /  3.2km/h 3.0mph /  4.8km/h 39% 0.00in /  0mm 408.0 W/m2
14:45 81.0 °F /  27.2 °C 53.6 °F /  12 °C 29.80in /  1009hPa SSW 8.1mph /  13km/h 8.1mph /  13km/h 39% 0.00in /  0mm 870.0 W/m2
14:51 81.7 °F /  27.6 °C 54.3 °F /  12.4 °C 29.80in /  1009hPa SSE 0.9mph /  1.4km/h 7.0mph /  11.3km/h 39% 0.00in /  0mm 1009.0 W/m2
14:57 82.0 °F /  27.8 °C 54.0 °F /  12.2 °C 29.80in /  1009hPa SSW 2.9mph /  4.7km/h 10.0mph /  16.1km/h 38% 0.00in /  0mm 1074.0 W/m2
15:03 81.5 °F /  27.5 °C 53.4 °F /  11.9 °C 29.80in /  1009hPa SSW 2.9mph /  4.7km/h 8.0mph /  12.9km/h 38% 0.00in /  0mm 255.0 W/m2
15:10 80.6 °F /  27 °C 53.4 °F /  11.9 °C 29.80in /  1009hPa SSW 2.9mph /  4.7km/h 6.0mph /  9.7km/h 39% 0.00in /  0mm 169.0 W/m2
15:16 79.9 °F /  26.6 °C 53.4 °F /  11.9 °C 29.79in /  1008.7hPa SW 0.9mph /  1.4km/h 4.0mph /  6.4km/h 40% 0.00in /  0mm 95.0 W/m2
15:22 78.6 °F /  25.9 °C 52.3 °F /  11.3 °C 29.79in /  1008.7hPa SSW 2.0mph /  3.2km/h 3.0mph /  4.8km/h 40% 0.00in /  0mm 105.0 W/m2
15:28 78.1 °F /  25.6 °C 53.1 °F /  11.7 °C 29.79in /  1008.7hPa Calm   4.0mph /  6.4km/h 42% 0.00in /  0mm 107.0 W/m2
15:34 77.7 °F /  25.4 °C 52.9 °F /  11.6 °C 29.79in /  1008.7hPa WSW 8.1mph /  13km/h 8.1mph /  13km/h 42% 0.00in /  0mm 79.0 W/m2
15:40 77.4 °F /  25.2 °C 55.6 °F /  13.1 °C 29.79in /  1008.7hPa WSW 2.0mph /  3.2km/h 8.0mph /  12.9km/h 47% 0.00in /  0mm 93.0 W/m2
15:46 76.3 °F /  24.6 °C 61.9 °F /  16.6 °C 29.79in /  1008.7hPa WNW 0.9mph /  1.4km/h 5.0mph /  8km/h 61% 0.01in /  0.25mm 100.0 W/m2
15:52 74.5 °F /  23.6 °C 61.9 °F /  16.6 °C 29.79in /  1008.7hPa Calm   2.0mph /  3.2km/h 65% 0.02in /  0.51mm 165.0 W/m2
15:58 73.0 °F /  22.8 °C 62.2 °F /  16.8 °C 29.79in /  1008.7hPa West 2.9mph /  4.7km/h 3.0mph /  4.8km/h 69% 0.02in /  0.51mm 188.0 W/m2
16:04 71.2 °F /  21.8 °C 60.1 °F /  15.6 °C 29.79in /  1008.7hPa NW 0.9mph /  1.4km/h 9.0mph /  14.5km/h 68% 0.05in /  1.27mm 209.0 W/m2
16:11 69.6 °F /  20.9 °C 58.6 °F /  14.8 °C 29.78in /  1008.4hPa Calm   2.0mph /  3.2km/h 68% 0.06in /  1.52mm 192.0 W/m2
16:17 69.1 °F /  20.6 °C 62.6 °F /  17 °C 29.78in /  1008.4hPa Calm   2.0mph /  3.2km/h 80% 0.06in /  1.52mm 200.0 W/m2
16:23 68.7 °F /  20.4 °C 60.8 °F /  16 °C 29.78in /  1008.4hPa Calm   2.0mph /  3.2km/h 76% 0.06in /  1.52mm 200.0 W/m2
16:29 69.1 °F /  20.6 °C 63.7 °F /  17.6 °C 29.78in /  1008.4hPa East 0.9mph /  1.4km/h 3.0mph /  4.8km/h 83% 0.06in /  1.52mm 206.0 W/m2
16:35 69.3 °F /  20.7 °C 62.4 °F /  16.9 °C 29.78in /  1008.4hPa ESE 6.0mph /  9.7km/h 8.0mph /  12.9km/h 79% 0.06in /  1.52mm 149.0 W/m2
16:41 69.3 °F /  20.7 °C 60.6 °F /  15.9 °C 29.78in /  1008.4hPa East 0.9mph /  1.4km/h 7.0mph /  11.3km/h 74% 0.06in /  1.52mm 128.0 W/m2
16:47 69.1 °F /  20.6 °C 60.1 °F /  15.6 °C 29.78in /  1008.4hPa ENE 0.9mph /  1.4km/h 8.0mph /  12.9km/h 73% 0.06in /  1.52mm 163.0 W/m2
16:53 69.3 °F /  20.7 °C 60.3 °F /  15.7 °C 29.78in /  1008.4hPa ENE 4.0mph /  6.4km/h 12.0mph /  19.3km/h 73% 0.05in /  1.27mm 144.0 W/m2
16:59 69.3 °F /  20.7 °C 59.0 °F /  15 °C 29.78in /  1008.4hPa SE 0.9mph /  1.4km/h 8.0mph /  12.9km/h 70% 0.05in /  1.27mm 128.0 W/m2
17:05 68.9 °F /  20.5 °C 57.9 °F /  14.4 °C 29.78in /  1008.4hPa NE 2.9mph /  4.7km/h 8.0mph /  12.9km/h 68% 0.01in /  0.25mm 116.0 W/m2
17:11 68.7 °F /  20.4 °C 57.4 °F /  14.1 °C 29.78in /  1008.4hPa East 4.9mph /  7.9km/h 13.0mph /  20.9km/h 67% 0.00in /  0mm 102.0 W/m2
17:17 68.4 °F /  20.2 °C 57.0 °F /  13.9 °C 29.78in /  1008.4hPa SE 4.9mph /  7.9km/h 14.0mph /  22.5km/h 67% 0.00in /  0mm 91.0 W/m2
17:23 68.0 °F /  20 °C 57.0 °F /  13.9 °C 29.78in /  1008.4hPa East 4.0mph /  6.4km/h 10.0mph /  16.1km/h 68% 0.00in /  0mm 88.0 W/m2
17:29 67.8 °F /  19.9 °C 58.1 °F /  14.5 °C 29.78in /  1008.4hPa NNE 2.9mph /  4.7km/h 8.0mph /  12.9km/h 71% 0.00in /  0mm 355.0 W/m2
17:35 68.2 °F /  20.1 °C 57.6 °F /  14.2 °C 29.78in /  1008.4hPa NNE 2.0mph /  3.2km/h 11.0mph /  17.7km/h 69% 0.00in /  0mm 102.0 W/m2
17:41 68.2 °F /  20.1 °C 58.1 °F /  14.5 °C 29.78in /  1008.4hPa NNE 4.9mph /  7.9km/h 8.0mph /  12.9km/h 70% 0.00in /  0mm 102.0 W/m2
17:47 68.2 °F /  20.1 °C 58.5 °F /  14.7 °C 29.78in /  1008.4hPa ENE 4.9mph /  7.9km/h 9.0mph /  14.5km/h 71% 0.00in /  0mm 97.0 W/m2
17:53 68.2 °F /  20.1 °C 57.6 °F /  14.2 °C 29.78in /  1008.4hPa Calm   9.0mph /  14.5km/h 69% 0.00in /  0mm 77.0 W/m2
17:59 68.2 °F /  20.1 °C 57.6 °F /  14.2 °C 29.78in /  1008.4hPa ENE 2.9mph /  4.7km/h 6.0mph /  9.7km/h 69% 0.00in /  0mm 65.0 W/m2
18:05 68.2 °F /  20.1 °C 58.1 °F /  14.5 °C 29.79in /  1008.7hPa ENE 2.0mph /  3.2km/h 7.0mph /  11.3km/h 70% 0.00in /  0mm 47.0 W/m2
18:11 68.2 °F /  20.1 °C 57.2 °F /  14 °C 29.79in /  1008.7hPa ENE 2.9mph /  4.7km/h 8.0mph /  12.9km/h 68% 0.00in /  0mm 39.0 W/m2
18:23 68.2 °F /  20.1 °C 57.2 °F /  14 °C 29.79in /  1008.7hPa ENE 2.0mph /  3.2km/h 6.0mph /  9.7km/h 68% 0.00in /  0mm 26.0 W/m2
18:29 68.4 °F /  20.2 °C 57.0 °F /  13.9 °C 29.80in /  1009hPa NE 2.0mph /  3.2km/h 5.0mph /  8km/h 67% 0.00in /  0mm 19.0 W/m2
18:35 68.4 °F /  20.2 °C 57.0 °F /  13.9 °C 29.80in /  1009hPa NNW 2.0mph /  3.2km/h 9.0mph /  14.5km/h 67% 0.00in /  0mm 19.0 W/m2
18:41 68.4 °F /  20.2 °C 57.4 °F /  14.1 °C 29.80in /  1009hPa NE 4.0mph /  6.4km/h 6.0mph /  9.7km/h 68% 0.00in /  0mm 16.0 W/m2
18:47 68.4 °F /  20.2 °C 57.7 °F /  14.3 °C 29.80in /  1009hPa NE 0.9mph /  1.4km/h 4.0mph /  6.4km/h 69% 0.00in /  0mm 11.0 W/m2
18:53 68.4 °F /  20.2 °C 57.7 °F /  14.3 °C 29.80in /  1009hPa ENE 4.0mph /  6.4km/h 6.0mph /  9.7km/h 69% 0.00in /  0mm 5.0 W/m2
18:59 68.2 °F /  20.1 °C 58.1 °F /  14.5 °C 29.80in /  1009hPa ESE 0.9mph /  1.4km/h 5.0mph /  8km/h 70% 0.00in /  0mm 0.0 W/m2
19:11 68.0 °F /  20 °C 57.9 °F /  14.4 °C 29.80in /  1009hPa East 2.0mph /  3.2km/h 3.0mph /  4.8km/h 70% 0.00in /  0mm 0.0 W/m2
19:17 67.8 °F /  19.9 °C 57.7 °F /  14.3 °C 29.81in /  1009.4hPa ENE 0.9mph /  1.4km/h 4.0mph /  6.4km/h 70% 0.00in /  0mm 0.0 W/m2
19:23 67.8 °F /  19.9 °C 57.7 °F /  14.3 °C 29.81in /  1009.4hPa ENE 0.9mph /  1.4km/h 4.0mph /  6.4km/h 70% 0.00in /  0mm 0.0 W/m2
19:29 67.8 °F /  19.9 °C 57.2 °F /  14 °C 29.81in /  1009.4hPa Calm   3.0mph /  4.8km/h 69% 0.00in /  0mm 0.0 W/m2
19:35 67.8 °F /  19.9 °C 57.2 °F /  14 °C 29.82in /  1009.7hPa Calm   2.0mph /  3.2km/h 69% 0.00in /  0mm 0.0 W/m2
19:41 67.8 °F /  19.9 °C 57.7 °F /  14.3 °C 29.82in /  1009.7hPa Calm   2.0mph /  3.2km/h 70% 0.00in /  0mm 0.0 W/m2
19:47 67.6 °F /  19.8 °C 57.6 °F /  14.2 °C 29.82in /  1009.7hPa Calm   1.0mph /  1.6km/h 70% 0.00in /  0mm 0.0 W/m2
19:53 67.6 °F /  19.8 °C 57.6 °F /  14.2 °C 29.82in /  1009.7hPa Calm   1.0mph /  1.6km/h 70% 0.00in /  0mm 0.0 W/m2
19:59 67.6 °F /  19.8 °C 57.9 °F /  14.4 °C 29.83in /  1010hPa Calm   1.0mph /  1.6km/h 71% 0.00in /  0mm 0.0 W/m2
20:05 67.5 °F /  19.7 °C 57.4 °F /  14.1 °C 29.83in /  1010hPa Calm   1.0mph /  1.6km/h 70% 0.00in /  0mm 0.0 W/m2
20:11 67.5 °F /  19.7 °C 57.4 °F /  14.1 °C 29.83in /  1010hPa Calm   3.0mph /  4.8km/h 70% 0.00in /  0mm 0.0 W/m2
20:17 67.5 °F /  19.7 °C 57.4 °F /  14.1 °C 29.83in /  1010hPa Calm   1.0mph /  1.6km/h 70% 0.00in /  0mm 0.0 W/m2
20:23 67.5 °F /  19.7 °C 57.4 °F /  14.1 °C 29.84in /  1010.4hPa Calm   2.0mph /  3.2km/h 70% 0.00in /  0mm 0.0 W/m2
20:29 67.3 °F /  19.6 °C 57.2 °F /  14 °C 29.84in /  1010.4hPa Calm     70% 0.00in /  0mm 0.0 W/m2
20:35 67.3 °F /  19.6 °C 57.2 °F /  14 °C 29.84in /  1010.4hPa Calm   1.0mph /  1.6km/h 70% 0.00in /  0mm 0.0 W/m2
20:41 66.9 °F /  19.4 °C 57.2 °F /  14 °C 29.84in /  1010.4hPa Calm     71% 0.00in /  0mm 0.0 W/m2
20:47 66.9 °F /  19.4 °C 57.2 °F /  14 °C 29.85in /  1010.7hPa East 1.0mph /  1.6km/h 1.0mph /  1.6km/h 71% 0.00in /  0mm 0.0 W/m2
20:53 66.7 °F /  19.3 °C 57.4 °F /  14.1 °C 29.85in /  1010.7hPa Calm     72% 0.00in /  0mm 0.0 W/m2
20:59 66.6 °F /  19.2 °C 57.2 °F /  14 °C 29.85in /  1010.7hPa East 0.9mph /  1.4km/h 1.0mph /  1.6km/h 72% 0.00in /  0mm 0.0 W/m2
21:05 66.6 °F /  19.2 °C 57.6 °F /  14.2 °C 29.85in /  1010.7hPa Calm     73% 0.00in /  0mm 0.0 W/m2
21:11 66.4 °F /  19.1 °C 57.4 °F /  14.1 °C 29.86in /  1011.1hPa Calm     73% 0.00in /  0mm 0.0 W/m2
21:17 66.0 °F /  18.9 °C 57.6 °F /  14.2 °C 29.86in /  1011.1hPa Calm   1.0mph /  1.6km/h 74% 0.00in /  0mm 0.0 W/m2
21:23 65.8 °F /  18.8 °C 57.4 °F /  14.1 °C 29.86in /  1011.1hPa Calm   1.0mph /  1.6km/h 74% 0.00in /  0mm 0.0 W/m2
21:29 65.8 °F /  18.8 °C 57.4 °F /  14.1 °C 29.86in /  1011.1hPa Calm   1.0mph /  1.6km/h 74% 0.00in /  0mm 0.0 W/m2
21:35 65.7 °F /  18.7 °C 57.2 °F /  14 °C 29.86in /  1011.1hPa Calm   1.0mph /  1.6km/h 74% 0.00in /  0mm 0.0 W/m2
21:42 65.7 °F /  18.7 °C 57.2 °F /  14 °C 29.87in /  1011.4hPa Calm     74% 0.00in /  0mm 0.0 W/m2
21:48 65.7 °F /  18.7 °C 57.2 °F /  14 °C 29.87in /  1011.4hPa Calm   1.0mph /  1.6km/h 74% 0.00in /  0mm 0.0 W/m2
21:54 65.8 °F /  18.8 °C 57.4 °F /  14.1 °C 29.87in /  1011.4hPa Calm     74% 0.00in /  0mm 0.0 W/m2
22:00 65.8 °F /  18.8 °C 57.4 °F /  14.1 °C 29.87in /  1011.4hPa Calm   1.0mph /  1.6km/h 74% 0.00in /  0mm 0.0 W/m2
22:06 65.8 °F /  18.8 °C 57.4 °F /  14.1 °C 29.88in /  1011.7hPa Calm     74% 0.00in /  0mm 0.0 W/m2
22:12 65.8 °F /  18.8 °C 57.4 °F /  14.1 °C 29.88in /  1011.7hPa Calm   1.0mph /  1.6km/h 74% 0.00in /  0mm 0.0 W/m2
22:18 65.8 °F /  18.8 °C 57.0 °F /  13.9 °C 29.88in /  1011.7hPa Calm     73% 0.00in /  0mm 0.0 W/m2
22:24 65.8 °F /  18.8 °C 57.4 °F /  14.1 °C 29.87in /  1011.4hPa Calm   1.0mph /  1.6km/h 74% 0.00in /  0mm 0.0 W/m2
22:30 65.8 °F /  18.8 °C 57.4 °F /  14.1 °C 29.87in /  1011.4hPa Calm   1.0mph /  1.6km/h 74% 0.00in /  0mm 0.0 W/m2
22:36 65.7 °F /  18.7 °C 57.2 °F /  14 °C 29.88in /  1011.7hPa Calm   1.0mph /  1.6km/h 74% 0.00in /  0mm 0.0 W/m2
22:42 65.7 °F /  18.7 °C 57.2 °F /  14 °C 29.88in /  1011.7hPa Calm     74% 0.00in /  0mm 0.0 W/m2
22:48 65.5 °F /  18.6 °C 57.4 °F /  14.1 °C 29.87in /  1011.4hPa Calm     75% 0.00in /  0mm 0.0 W/m2
22:54 65.3 °F /  18.5 °C 57.2 °F /  14 °C 29.88in /  1011.7hPa Calm   2.0mph /  3.2km/h 75% 0.00in /  0mm 0.0 W/m2
23:00 64.9 °F /  18.3 °C 56.5 °F /  13.6 °C 29.88in /  1011.7hPa Calm   1.0mph /  1.6km/h 74% 0.00in /  0mm 0.0 W/m2
23:06 64.9 °F /  18.3 °C 56.5 °F /  13.6 °C 29.88in /  1011.7hPa Calm     74% 0.00in /  0mm 0.0 W/m2
23:12 64.8 °F /  18.2 °C 55.6 °F /  13.1 °C 29.88in /  1011.7hPa Calm     72% 0.00in /  0mm 0.0 W/m2
23:18 64.8 °F /  18.2 °C 56.3 °F /  13.5 °C 29.88in /  1011.7hPa Calm     74% 0.00in /  0mm 0.0 W/m2
23:24 64.8 °F /  18.2 °C 56.3 °F /  13.5 °C 29.88in /  1011.7hPa Calm     74% 0.00in /  0mm 0.0 W/m2
23:30 64.8 °F /  18.2 °C 55.9 °F /  13.3 °C 29.88in /  1011.7hPa Calm     73% 0.00in /  0mm 0.0 W/m2
23:36 64.4 °F /  18 °C 49.8 °F /  9.9 °C 29.89in /  1012.1hPa ESE 0.9mph /  1.4km/h 3.0mph /  4.8km/h 59% 0.00in /  0mm 0.0 W/m2
23:42 64.4 °F /  18 °C 45.9 °F /  7.7 °C 29.89in /  1012.1hPa Calm   3.0mph /  4.8km/h 51% 0.00in /  0mm 0.0 W/m2
23:48 64.8 °F /  18.2 °C 43.0 °F /  6.1 °C 29.89in /  1012.1hPa ESE 4.0mph /  6.4km/h 5.0mph /  8km/h 45% 0.00in /  0mm 0.0 W/m2
Olympia, Windhoek, Namibia
Compliments of Weather Underground - 3 mb